createdAt,value
2023-05-10T00:00:17.672Z,13.20
2023-05-10T00:04:20.555Z,13.19
2023-05-10T00:08:23.267Z,13.15
2023-05-10T00:12:25.908Z,13.12
2023-05-10T00:16:29.993Z,13.03
2023-05-10T00:20:32.605Z,12.97
2023-05-10T00:24:35.248Z,12.94
2023-05-10T00:28:37.822Z,12.97
2023-05-10T00:32:41.763Z,12.93
2023-05-10T00:36:44.331Z,12.93
2023-05-10T00:40:47.077Z,12.93
2023-05-10T00:44:49.656Z,12.92
2023-05-10T00:48:54.212Z,12.89
2023-05-10T00:52:57.107Z,12.82
2023-05-10T00:56:59.784Z,12.80
2023-05-10T01:01:03.454Z,12.80
2023-05-10T01:05:08.662Z,12.75
2023-05-10T01:09:12.704Z,12.73
2023-05-10T01:13:20.593Z,12.74
2023-05-10T01:17:24.419Z,12.58
2023-05-10T01:21:38.596Z,12.43
2023-05-10T01:26:14.184Z,12.37
2023-05-10T01:30:54.616Z,12.42
2023-05-10T01:35:04.611Z,12.45
2023-05-10T01:39:13.765Z,12.46
2023-05-10T01:43:23.554Z,12.41
2023-05-10T01:47:33.558Z,12.39
2023-05-10T01:51:43.396Z,12.26
2023-05-10T01:55:49.453Z,12.30
2023-05-10T01:59:53.345Z,12.35
2023-05-10T02:03:57.651Z,12.35
2023-05-10T02:08:03.529Z,12.26
2023-05-10T02:12:07.634Z,12.22
2023-05-10T02:16:10.716Z,12.24
2023-05-10T02:20:14.250Z,12.24
2023-05-10T02:24:19.800Z,12.30
2023-05-10T02:28:23.760Z,12.37
2023-05-10T02:32:28.461Z,12.38
2023-05-10T02:36:32.456Z,12.22
2023-05-10T02:40:38.976Z,12.00
2023-05-10T02:44:43.738Z,11.92
2023-05-10T02:48:46.776Z,11.98
2023-05-10T02:52:53.775Z,12.05
2023-05-10T02:57:00.385Z,11.88
2023-05-10T03:01:03.214Z,11.71
2023-05-10T03:05:06.436Z,11.59
2023-05-10T03:09:10.402Z,11.50
2023-05-10T03:13:23.274Z,11.52
2023-05-10T03:17:38.302Z,11.50
2023-05-10T03:21:47.109Z,11.50
2023-05-10T03:25:51.250Z,11.35
2023-05-10T03:29:56.965Z,11.12
2023-05-10T03:33:59.591Z,11.12
2023-05-10T03:38:02.254Z,11.12
2023-05-10T03:42:05.132Z,11.12
2023-05-10T03:46:09.161Z,11.17
2023-05-10T03:50:12.333Z,11.10
2023-05-10T03:54:14.966Z,11.41
2023-05-10T03:58:17.629Z,11.42
2023-05-10T04:02:21.696Z,11.49
2023-05-10T04:06:24.337Z,11.35
2023-05-10T04:10:26.946Z,11.24
2023-05-10T04:14:29.573Z,11.18
2023-05-10T04:18:33.810Z,11.29
2023-05-10T04:22:36.451Z,11.28
2023-05-10T04:26:39.196Z,11.30
2023-05-10T04:30:42.421Z,11.34
2023-05-10T04:34:46.484Z,11.38
2023-05-10T04:38:49.088Z,11.37
2023-05-10T04:42:52.038Z,11.14
2023-05-10T04:46:54.659Z,11.11
2023-05-10T04:50:58.641Z,11.15
2023-05-10T04:55:01.247Z,11.05
2023-05-10T04:59:04.005Z,11.03
2023-05-10T05:03:07.197Z,11.02
2023-05-10T05:07:12.048Z,10.93
2023-05-10T05:11:14.654Z,10.84
2023-05-10T05:15:17.891Z,10.76
2023-05-10T05:19:20.535Z,10.76
2023-05-10T05:23:25.786Z,10.71
2023-05-10T05:27:29.031Z,10.72
2023-05-10T05:31:31.934Z,10.74
2023-05-10T05:35:35.164Z,10.72
2023-05-10T05:39:39.490Z,10.67
2023-05-10T05:43:42.072Z,10.60
2023-05-10T05:47:45.173Z,10.64
2023-05-10T05:51:49.030Z,10.71
2023-05-10T05:55:56.721Z,10.69
2023-05-10T05:59:59.362Z,10.63
2023-05-10T06:04:02.051Z,10.66
2023-05-10T06:08:05.012Z,10.69
2023-05-10T06:12:10.000Z,10.82
2023-05-10T06:16:12.629Z,10.93
2023-05-10T06:20:15.979Z,11.04
2023-05-10T06:24:18.583Z,11.18
2023-05-10T06:28:22.620Z,11.39
2023-05-10T06:32:25.401Z,11.63
2023-05-10T06:36:28.982Z,11.76
2023-05-10T06:40:34.002Z,11.87
2023-05-10T06:44:37.948Z,11.98
2023-05-10T06:48:40.575Z,12.09
2023-05-10T06:52:44.191Z,12.13
2023-05-10T06:56:46.854Z,12.19
2023-05-10T07:00:50.806Z,12.26
2023-05-10T07:04:54.126Z,12.42
2023-05-10T07:08:56.860Z,12.58
2023-05-10T07:12:59.530Z,12.66
2023-05-10T07:17:03.513Z,12.62
2023-05-10T07:21:06.182Z,12.52
2023-05-10T07:25:09.564Z,12.59
2023-05-10T07:29:12.193Z,12.59
2023-05-10T07:33:16.980Z,12.66
2023-05-10T07:37:19.961Z,12.81
2023-05-10T07:41:23.434Z,12.89
2023-05-10T07:45:26.058Z,12.98
2023-05-10T07:49:29.994Z,12.99
2023-05-10T07:53:32.646Z,13.02
2023-05-10T07:57:35.688Z,13.10
2023-05-10T08:01:38.764Z,13.14
2023-05-10T08:05:42.811Z,13.20
2023-05-10T08:09:45.488Z,13.41
2023-05-10T08:13:48.555Z,13.50
2023-05-10T08:17:51.197Z,13.41
2023-05-10T08:21:56.504Z,13.59
2023-05-10T08:25:59.924Z,13.65
2023-05-10T08:30:02.742Z,13.74
2023-05-10T08:34:05.363Z,14.08
2023-05-10T08:38:09.347Z,14.20
2023-05-10T08:42:12.189Z,14.40
2023-05-10T08:46:18.181Z,14.17
2023-05-10T08:50:22.941Z,14.04
2023-05-10T08:54:27.029Z,14.13
2023-05-10T08:58:30.908Z,14.66
2023-05-10T09:02:33.728Z,14.66
2023-05-10T09:06:40.632Z,14.56
2023-05-10T09:10:45.906Z,14.60
2023-05-10T09:14:48.754Z,14.58
2023-05-10T09:18:51.687Z,14.57
2023-05-10T09:22:54.820Z,14.59
2023-05-10T09:27:01.136Z,14.64
2023-05-10T09:31:03.804Z,14.82
2023-05-10T09:35:11.026Z,14.79
2023-05-10T09:39:15.095Z,14.59
2023-05-10T09:43:19.056Z,14.52
2023-05-10T09:47:21.706Z,14.52
2023-05-10T09:51:27.882Z,14.58
2023-05-10T09:55:41.505Z,14.74
2023-05-10T09:59:46.246Z,14.95
2023-05-10T10:03:48.921Z,15.10
2023-05-10T10:07:51.610Z,15.68
2023-05-10T10:11:54.438Z,16.05
2023-05-10T10:15:58.449Z,16.76
2023-05-10T10:20:01.560Z,16.89
2023-05-10T10:24:06.631Z,17.19
2023-05-10T10:28:19.130Z,16.78
2023-05-10T10:32:30.952Z,16.74
2023-05-10T10:36:34.870Z,17.39
2023-05-10T10:40:37.874Z,17.11
2023-05-10T10:44:42.880Z,16.34
2023-05-10T10:48:52.654Z,16.18
2023-05-10T10:52:55.660Z,16.08
2023-05-10T10:57:14.911Z,15.84
2023-05-10T11:01:18.832Z,15.70
2023-05-10T11:05:40.435Z,15.73
2023-05-10T11:09:43.099Z,15.86
2023-05-10T11:13:50.917Z,15.87
2023-05-10T11:17:56.010Z,15.97
2023-05-10T11:22:15.481Z,16.04
2023-05-10T11:26:18.851Z,15.97
2023-05-10T11:30:21.597Z,16.11
2023-05-10T11:34:28.855Z,16.23
2023-05-10T11:38:35.060Z,16.27
2023-05-10T11:42:39.170Z,16.40
2023-05-10T11:46:42.011Z,16.37
2023-05-10T11:50:48.085Z,16.24
2023-05-10T11:54:55.017Z,16.29
2023-05-10T11:58:59.000Z,16.28
2023-05-10T12:03:03.136Z,16.55
2023-05-10T12:07:06.610Z,16.88
2023-05-10T12:11:14.676Z,16.93
2023-05-10T12:15:21.851Z,17.02
2023-05-10T12:19:24.552Z,17.11
2023-05-10T12:23:28.468Z,17.19
2023-05-10T12:27:35.361Z,17.19
2023-05-10T12:31:51.476Z,17.24
2023-05-10T12:35:57.307Z,17.21
2023-05-10T12:39:59.914Z,17.22
2023-05-10T12:44:04.051Z,17.31
2023-05-10T12:48:07.853Z,17.49
2023-05-10T12:52:10.581Z,17.28
2023-05-10T12:56:13.256Z,16.70
2023-05-10T13:00:18.561Z,16.54
2023-05-10T13:04:21.247Z,16.30
2023-05-10T13:08:24.120Z,15.77
2023-05-10T13:12:26.757Z,15.20
2023-05-10T13:16:30.862Z,14.76
2023-05-10T13:20:33.697Z,14.30
2023-05-10T13:24:36.358Z,14.11
2023-05-10T13:28:39.810Z,13.87
2023-05-10T13:32:43.866Z,13.64
2023-05-10T13:36:46.503Z,13.44
2023-05-10T13:40:49.202Z,13.39
2023-05-10T13:44:52.362Z,13.45
2023-05-10T13:48:56.461Z,13.50
2023-05-10T13:52:59.114Z,13.55
2023-05-10T13:57:02.821Z,13.57
2023-05-10T14:01:05.855Z,13.67
2023-05-10T14:05:10.383Z,13.61
2023-05-10T14:09:13.043Z,13.50
2023-05-10T14:13:16.153Z,13.36
2023-05-10T14:17:18.882Z,13.28
2023-05-10T14:21:22.896Z,13.19
2023-05-10T14:25:25.792Z,13.14
2023-05-10T14:29:28.495Z,13.14
2023-05-10T14:33:31.132Z,13.14
2023-05-10T14:37:35.360Z,13.28
2023-05-10T14:41:38.146Z,13.40
2023-05-10T14:45:40.941Z,13.54
2023-05-10T14:49:43.601Z,13.55
2023-05-10T14:53:47.554Z,13.52
2023-05-10T14:57:51.299Z,13.62
2023-05-10T15:01:53.896Z,13.70
2023-05-10T15:05:58.624Z,13.67
2023-05-10T15:10:03.242Z,13.56
2023-05-10T15:14:05.925Z,13.59
2023-05-10T15:18:08.653Z,13.61
2023-05-10T15:22:11.370Z,13.55
2023-05-10T15:26:15.391Z,13.43
2023-05-10T15:30:18.045Z,13.28
2023-05-10T15:34:21.135Z,13.17
2023-05-10T15:38:23.775Z,13.14
2023-05-10T15:42:27.717Z,13.09
2023-05-10T15:46:30.919Z,13.06
2023-05-10T15:50:33.592Z,13.08
2023-05-10T15:54:36.371Z,13.03
2023-05-10T15:58:41.656Z,13.00
2023-05-10T16:02:44.398Z,13.00
2023-05-10T16:06:47.177Z,12.89
2023-05-10T16:10:50.299Z,12.81
2023-05-10T16:14:54.393Z,12.75
2023-05-10T16:18:57.821Z,12.74
2023-05-10T16:23:04.205Z,12.68
2023-05-10T16:27:07.020Z,12.62
2023-05-10T16:31:11.151Z,12.63
2023-05-10T16:35:13.798Z,12.51
2023-05-10T16:39:16.574Z,12.52
2023-05-10T16:43:19.306Z,12.57
2023-05-10T16:47:26.505Z,12.58
2023-05-10T16:51:29.333Z,12.58
2023-05-10T16:55:31.971Z,12.54
2023-05-10T16:59:34.640Z,12.54
2023-05-10T17:03:38.709Z,12.53
2023-05-10T17:07:41.405Z,12.55
2023-05-10T17:11:44.022Z,12.54
2023-05-10T17:15:47.900Z,12.50
2023-05-10T17:19:51.982Z,12.50
2023-05-10T17:23:54.633Z,12.40
2023-05-10T17:27:57.272Z,12.36
2023-05-10T17:32:00.092Z,12.35
2023-05-10T17:36:04.202Z,12.25
2023-05-10T17:40:10.077Z,12.14
2023-05-10T17:44:13.174Z,12.04
2023-05-10T17:48:15.929Z,11.96
2023-05-10T17:52:19.961Z,11.95
2023-05-10T17:56:23.097Z,11.96
2023-05-10T18:00:25.924Z,11.90
2023-05-10T18:04:28.707Z,11.78
2023-05-10T18:08:33.166Z,11.78
2023-05-10T18:12:36.054Z,11.65
2023-05-10T18:16:38.738Z,11.61
2023-05-10T18:20:41.499Z,11.58
2023-05-10T18:24:47.001Z,11.57
2023-05-10T18:28:49.743Z,11.52
2023-05-10T18:32:52.415Z,11.48
2023-05-10T18:36:55.256Z,11.43
2023-05-10T18:40:59.682Z,11.34
2023-05-10T18:45:02.691Z,11.31
2023-05-10T18:49:06.525Z,11.21
2023-05-10T18:53:09.288Z,11.15
2023-05-10T18:57:13.808Z,11.05
2023-05-10T19:01:16.815Z,11.03
2023-05-10T19:05:20.961Z,10.95
2023-05-10T19:09:23.764Z,10.95
2023-05-10T19:13:28.794Z,10.92
2023-05-10T19:17:31.640Z,10.87
2023-05-10T19:21:34.718Z,10.84
2023-05-10T19:25:38.683Z,10.83
2023-05-10T19:29:42.612Z,10.82
2023-05-10T19:33:45.340Z,10.77
2023-05-10T19:37:49.284Z,10.77
2023-05-10T19:41:51.974Z,10.77
2023-05-10T19:45:56.455Z,10.72
2023-05-10T19:49:59.578Z,10.70
2023-05-10T19:54:02.262Z,10.67
2023-05-10T19:58:05.608Z,10.62
2023-05-10T20:02:09.638Z,10.60
2023-05-10T20:06:12.281Z,10.61
2023-05-10T20:10:15.687Z,10.60
2023-05-10T20:14:19.640Z,10.57
2023-05-10T20:18:23.753Z,10.55
2023-05-10T20:22:26.968Z,10.57
2023-05-10T20:26:29.662Z,10.56
2023-05-10T20:30:32.363Z,10.55
2023-05-10T20:34:36.718Z,10.51
2023-05-10T20:38:39.403Z,10.50
2023-05-10T20:42:42.763Z,10.50
2023-05-10T20:46:45.603Z,10.47
2023-05-10T20:50:49.678Z,10.48
2023-05-10T20:54:52.729Z,10.46
2023-05-10T20:58:55.481Z,10.46
2023-05-10T21:02:58.468Z,10.43
2023-05-10T21:07:02.482Z,10.44
2023-05-10T21:11:05.739Z,10.42
2023-05-10T21:15:09.830Z,10.39
2023-05-10T21:19:12.549Z,10.36
2023-05-10T21:23:16.646Z,10.37
2023-05-10T21:27:19.290Z,10.37
2023-05-10T21:31:21.973Z,10.36
2023-05-10T21:35:25.262Z,10.36
2023-05-10T21:39:29.236Z,10.33
2023-05-10T21:43:31.877Z,10.27
2023-05-10T21:47:35.302Z,10.23
2023-05-10T21:51:38.023Z,10.22
2023-05-10T21:55:42.031Z,10.19
2023-05-10T21:59:44.714Z,10.14
2023-05-10T22:03:47.490Z,10.13
2023-05-10T22:07:50.147Z,10.14
2023-05-10T22:11:54.102Z,10.10
2023-05-10T22:15:56.825Z,10.10
2023-05-10T22:19:59.467Z,10.10
2023-05-10T22:24:02.075Z,10.14
2023-05-10T22:28:07.419Z,10.17
2023-05-10T22:32:10.048Z,10.18
2023-05-10T22:36:12.722Z,10.18
2023-05-10T22:40:15.503Z,10.17
2023-05-10T22:44:19.550Z,10.21
2023-05-10T22:48:22.262Z,10.21
2023-05-10T22:52:24.884Z,10.25
2023-05-10T22:56:28.341Z,10.17
2023-05-10T23:00:32.753Z,10.15
2023-05-10T23:04:35.461Z,10.18
2023-05-10T23:08:38.102Z,10.17
2023-05-10T23:12:40.803Z,10.12
2023-05-10T23:16:44.884Z,10.18
2023-05-10T23:20:47.592Z,10.15
2023-05-10T23:24:50.232Z,10.16
2023-05-10T23:28:52.832Z,10.18
2023-05-10T23:32:56.895Z,10.16
2023-05-10T23:36:59.556Z,10.18
2023-05-10T23:41:02.191Z,10.18
2023-05-10T23:45:05.622Z,10.15
2023-05-10T23:49:09.628Z,10.19
2023-05-10T23:53:12.335Z,10.19
2023-05-10T23:57:14.988Z,10.23
